Wetterdaten: Montag, 23.08.2010
Datum Zeit Temp. A. Feuchte A. Luftdruck Regen Wind Richtung Richtung Sonnenschein UV Solar Windben
23.08.2010 00:00 16,8 C 93 % 1010,5 hPa 0,0 mm 0,0 km/h (0 Bft) N 0 0 min 0 UV-I 0 W/m 0,0 km/h (0 Bft)
23.08.2010 00:10 16,8 C 93 % 1010,5 hPa 0,0 mm 0,0 km/h (0 Bft) N 0 0 min 0 UV-I 0 W/m 0,0 km/h (0 Bft)
23.08.2010 00:20 16,7 C 93 % 1010,5 hPa 0,0 mm 0,0 km/h (0 Bft) N 0 0 min 0 UV-I 0 W/m 0,0 km/h (0 Bft)
23.08.2010 00:30 16,5 C 93 % 1010,4 hPa 0,0 mm 0,0 km/h (0 Bft) N 0 0 min 0 UV-I 0 W/m 0,0 km/h (0 Bft)
23.08.2010 00:40 16,4 C 93 % 1010,3 hPa 0,0 mm 0,0 km/h (0 Bft) N 0 0 min 0 UV-I 0 W/m 0,0 km/h (0 Bft)
23.08.2010 00:50 16,4 C 94 % 1010,1 hPa 0,0 mm 0,0 km/h (0 Bft) N 0 0 min 0 UV-I 0 W/m 0,0 km/h (0 Bft)
23.08.2010 01:00 16,4 C 94 % 1010,0 hPa 0,0 mm 0,0 km/h (0 Bft) N 0 0 min 0 UV-I 0 W/m 0,0 km/h (0 Bft)
23.08.2010 01:10 16,3 C 94 % 1010,0 hPa 0,0 mm 0,0 km/h (0 Bft) N 0 0 min 0 UV-I 0 W/m 0,0 km/h (0 Bft)
23.08.2010 01:20 16,3 C 94 % 1009,7 hPa 0,0 mm 0,0 km/h (0 Bft) N 0 0 min 0 UV-I 0 W/m 0,0 km/h (0 Bft)
23.08.2010 01:30 16,3 C 94 % 1009,5 hPa 0,0 mm 0,0 km/h (0 Bft) N 0 0 min 0 UV-I 0 W/m 0,0 km/h (0 Bft)
23.08.2010 01:40 16,3 C 94 % 1009,3 hPa 0,0 mm 0,0 km/h (0 Bft) N 0 0 min 0 UV-I 0 W/m 0,0 km/h (0 Bft)
23.08.2010 01:50 16,3 C 94 % 1009,3 hPa 0,0 mm 0,0 km/h (0 Bft) N 0 0 min 0 UV-I 0 W/m 0,0 km/h (0 Bft)
23.08.2010 02:00 16,3 C 94 % 1009,3 hPa 0,0 mm 0,0 km/h (0 Bft) N 0 0 min 0 UV-I 0 W/m 0,0 km/h (0 Bft)
23.08.2010 02:10 16,3 C 94 % 1009,3 hPa 0,0 mm 0,0 km/h (0 Bft) N 0 0 min 0 UV-I 0 W/m 0,0 km/h (0 Bft)
23.08.2010 02:20 16,3 C 94 % 1009,3 hPa 0,0 mm 0,0 km/h (0 Bft) N 0 0 min 0 UV-I 0 W/m 0,0 km/h (0 Bft)
23.08.2010 02:30 16,3 C 94 % 1008,8 hPa 0,0 mm 0,0 km/h (0 Bft) N 0 0 min 0 UV-I 0 W/m 0,0 km/h (0 Bft)
23.08.2010 02:40 16,3 C 94 % 1008,8 hPa 0,0 mm 0,0 km/h (0 Bft) N 0 0 min 0 UV-I 0 W/m 0,0 km/h (0 Bft)
23.08.2010 02:50 16,3 C 94 % 1008,7 hPa 0,0 mm 0,0 km/h (0 Bft) N 0 0 min 0 UV-I 0 W/m 0,0 km/h (0 Bft)
23.08.2010 03:00 16,3 C 94 % 1008,5 hPa 0,0 mm 0,0 km/h (0 Bft) N 0 0 min 0 UV-I 0 W/m 0,0 km/h (0 Bft)
23.08.2010 03:10 16,3 C 94 % 1008,4 hPa 0,0 mm 0,0 km/h (0 Bft) N 0 0 min 0 UV-I 0 W/m 0,0 km/h (0 Bft)
23.08.2010 03:20 16,4 C 94 % 1008,3 hPa 0,0 mm 0,0 km/h (0 Bft) SO 135 0 min 0 UV-I 0 W/m 1,6 km/h (1 Bft)
23.08.2010 03:30 16,4 C 94 % 1008,1 hPa 0,0 mm 0,0 km/h (0 Bft) N 0 0 min 0 UV-I 0 W/m 0,0 km/h (0 Bft)
23.08.2010 03:40 16,5 C 94 % 1008,1 hPa 0,0 mm 0,0 km/h (0 Bft) N 0 0 min 0 UV-I 0 W/m 0,0 km/h (0 Bft)
23.08.2010 03:50 16,5 C 94 % 1007,8 hPa 0,0 mm 0,0 km/h (0 Bft) SO 135 0 min 0 UV-I 0 W/m 1,6 km/h (1 Bft)
23.08.2010 04:00 16,5 C 94 % 1007,7 hPa 0,0 mm 0,0 km/h (0 Bft) SO 135 0 min 0 UV-I 0 W/m 1,6 km/h (1 Bft)
23.08.2010 04:10 16,6 C 94 % 1007,6 hPa 0,0 mm 0,0 km/h (0 Bft) N 0 0 min 0 UV-I 0 W/m 0,0 km/h (0 Bft)
23.08.2010 04:20 16,6 C 94 % 1007,6 hPa 0,0 mm 0,0 km/h (0 Bft) N 0 0 min 0 UV-I 0 W/m 0,0 km/h (0 Bft)
23.08.2010 04:30 16,6 C 94 % 1007,5 hPa 0,0 mm 0,0 km/h (0 Bft) N 0 0 min 0 UV-I 0 W/m 0,0 km/h (0 Bft)
23.08.2010 04:40 16,6 C 94 % 1007,2 hPa 0,0 mm 0,0 km/h (0 Bft) N 0 0 min 0 UV-I 0 W/m 0,0 km/h (0 Bft)
23.08.2010 04:50 16,7 C 94 % 1007,1 hPa 0,0 mm 0,0 km/h (0 Bft) N 0 0 min 0 UV-I 0 W/m 0,0 km/h (0 Bft)
23.08.2010 05:00 16,7 C 94 % 1007,0 hPa 0,3 mm 0,0 km/h (0 Bft) N 0 0 min 0 UV-I 0 W/m 0,0 km/h (0 Bft)
23.08.2010 05:10 16,7 C 94 % 1006,9 hPa 0,0 mm 0,0 km/h (0 Bft) N 0 0 min 0 UV-I 0 W/m 0,0 km/h (0 Bft)
23.08.2010 05:20 16,7 C 94 % 1006,6 hPa 0,0 mm 0,0 km/h (0 Bft) SO 135 0 min 0 UV-I 0 W/m 1,6 km/h (1 Bft)
23.08.2010 05:30 16,7 C 95 % 1006,5 hPa 0,0 mm 0,0 km/h (0 Bft) SO 135 0 min 0 UV-I 0 W/m 1,6 km/h (1 Bft)
23.08.2010 05:40 16,8 C 95 % 1006,6 hPa 0,0 mm 0,0 km/h (0 Bft) N 0 0 min 0 UV-I 0 W/m 0,0 km/h (0 Bft)
23.08.2010 05:50 16,8 C 95 % 1006,2 hPa 0,0 mm 0,0 km/h (0 Bft) N 0 0 min 0 UV-I 0 W/m 0,0 km/h (0 Bft)
23.08.2010 06:00 16,8 C 95 % 1006,0 hPa 0,0 mm 0,0 km/h (0 Bft) N 0 0 min 0 UV-I 0 W/m 0,0 km/h (0 Bft)
23.08.2010 06:10 16,9 C 95 % 1005,5 hPa 0,0 mm 0,0 km/h (0 Bft) SO 135 0 min 0 UV-I 0 W/m 1,6 km/h (1 Bft)
23.08.2010 06:20 17,0 C 95 % 1005,4 hPa 0,0 mm 0,0 km/h (0 Bft) N 0 0 min 0 UV-I 0 W/m 0,0 km/h (0 Bft)
23.08.2010 06:30 17,1 C 95 % 1005,6 hPa 0,0 mm 0,0 km/h (0 Bft) N 0 0 min 0 UV-I 0 W/m 0,0 km/h (0 Bft)
23.08.2010 06:40 17,1 C 95 % 1005,6 hPa 0,0 mm 0,0 km/h (0 Bft) N 0 0 min 0 UV-I 0 W/m 0,0 km/h (0 Bft)
23.08.2010 06:50 17,1 C 95 % 1005,4 hPa 0,0 mm 0,0 km/h (0 Bft) N 0 0 min 0 UV-I 0 W/m 0,0 km/h (0 Bft)
23.08.2010 07:00 17,2 C 95 % 1005,1 hPa 0,0 mm 0,0 km/h (0 Bft) SO 135 0 min 0 UV-I 7 W/m 1,6 km/h (1 Bft)
23.08.2010 07:10 17,3 C 95 % 1005,2 hPa 0,0 mm 0,0 km/h (0 Bft) SO 135 0 min 0 UV-I 19 W/m 3,2 km/h (1 Bft)
23.08.2010 07:20 17,4 C 95 % 1005,1 hPa 0,0 mm 0,0 km/h (0 Bft) O-SO 112 0 min 0 UV-I 23 W/m 1,6 km/h (1 Bft)
23.08.2010 07:30 17,6 C 95 % 1004,8 hPa 0,0 mm 0,0 km/h (0 Bft) O-SO 112 0 min 0 UV-I 28 W/m 4,8 km/h (1 Bft)
23.08.2010 07:40 17,7 C 95 % 1004,4 hPa 0,0 mm 1,6 km/h (1 Bft) O-SO 112 0 min 0 UV-I 54 W/m 4,8 km/h (1 Bft)
23.08.2010 07:50 17,9 C 95 % 1004,1 hPa 0,0 mm 1,6 km/h (1 Bft) O-SO 112 0 min 0 UV-I 51 W/m 6,4 km/h (2 Bft)
23.08.2010 08:00 18,0 C 95 % 1004,1 hPa 0,0 mm 0,6 km/h (0 Bft) O 88 0 min 0 UV-I 25 W/m 4,8 km/h (1 Bft)
23.08.2010 08:10 18,0 C 95 % 1004,1 hPa 0,0 mm 0,0 km/h (0 Bft) S 180 0 min 0 UV-I 39 W/m 4,8 km/h (1 Bft)
23.08.2010 08:20 18,2 C 95 % 1003,7 hPa 0,0 mm 1,6 km/h (1 Bft) SO 135 0 min 0 UV-I 53 W/m 4,8 km/h (1 Bft)
23.08.2010 08:30 18,3 C 95 % 1003,5 hPa 0,0 mm 1,6 km/h (1 Bft) SO 135 0 min 0 UV-I 53 W/m 6,4 km/h (2 Bft)
23.08.2010 08:40 18,3 C 95 % 1003,4 hPa 0,0 mm 3,2 km/h (1 Bft) SO 135 0 min 1 UV-I 90 W/m 8,0 km/h (2 Bft)
23.08.2010 08:50 18,5 C 95 % 1003,1 hPa 0,0 mm 1,6 km/h (1 Bft) O-SO 112 0 min 1 UV-I 84 W/m 9,7 km/h (2 Bft)
23.08.2010 09:00 18,6 C 95 % 1002,8 hPa 0,0 mm 3,2 km/h (1 Bft) O-SO 112 0 min 1 UV-I 79 W/m 9,7 km/h (2 Bft)
23.08.2010 09:10 18,7 C 95 % 1002,9 hPa 0,0 mm 1,6 km/h (1 Bft) S 180 0 min 1 UV-I 74 W/m 8,0 km/h (2 Bft)
23.08.2010 09:20 18,8 C 94 % 1003,3 hPa 0,0 mm 1,6 km/h (1 Bft) SO 135 0 min 1 UV-I 105 W/m 9,7 km/h (2 Bft)
23.08.2010 09:30 18,9 C 94 % 1003,3 hPa 0,0 mm 3,2 km/h (1 Bft) S 180 0 min 1 UV-I 63 W/m 14,5 km/h (3 Bft)
23.08.2010 09:40 18,9 C 94 % 1003,1 hPa 0,0 mm 3,2 km/h (1 Bft) S-SW 202 0 min 1 UV-I 60 W/m 20,9 km/h (4 Bft)
23.08.2010 09:50 18,8 C 93 % 1003,0 hPa 0,0 mm 3,2 km/h (1 Bft) S 180 0 min 1 UV-I 63 W/m 12,9 km/h (3 Bft)
23.08.2010 10:00 18,8 C 93 % 1002,9 hPa 0,0 mm 4,8 km/h (1 Bft) S-SW 202 0 min 1 UV-I 81 W/m 14,5 km/h (3 Bft)
23.08.2010 10:10 18,8 C 93 % 1002,9 hPa 0,0 mm 3,2 km/h (1 Bft) S-SO 157 0 min 1 UV-I 95 W/m 11,3 km/h (2 Bft)
23.08.2010 10:20 18,9 C 93 % 1002,8 hPa 0,0 mm 3,2 km/h (1 Bft) S-SO 157 0 min 1 UV-I 97 W/m 9,7 km/h (2 Bft)
23.08.2010 10:30 19,0 C 93 % 1002,8 hPa 0,0 mm 1,6 km/h (1 Bft) S-SO 157 0 min 1 UV-I 98 W/m 14,5 km/h (3 Bft)
23.08.2010 10:40 19,1 C 92 % 1002,8 hPa 0,0 mm 1,6 km/h (1 Bft) S-SO 157 0 min 1 UV-I 113 W/m 9,7 km/h (2 Bft)
23.08.2010 10:50 19,3 C 93 % 1002,7 hPa 0,0 mm 0,0 km/h (0 Bft) SO 135 0 min 1 UV-I 127 W/m 3,2 km/h (1 Bft)
23.08.2010 11:00 19,4 C 92 % 1002,5 hPa 0,0 mm 0,0 km/h (0 Bft) O-SO 112 0 min 1 UV-I 97 W/m 4,8 km/h (1 Bft)
23.08.2010 11:10 19,4 C 92 % 1002,5 hPa 0,0 mm 0,0 km/h (0 Bft) O-SO 112 0 min 1 UV-I 86 W/m 6,4 km/h (2 Bft)
23.08.2010 11:20 19,4 C 92 % 1002,4 hPa 0,0 mm 0,0 km/h (0 Bft) S-SO 157 0 min 2 UV-I 192 W/m 4,8 km/h (1 Bft)
23.08.2010 11:30 19,7 C 91 % 1002,2 hPa 0,0 mm 1,6 km/h (1 Bft) S-SO 157 0 min 2 UV-I 192 W/m 9,7 km/h (2 Bft)
23.08.2010 11:40 19,8 C 90 % 1002,0 hPa 0,0 mm 1,6 km/h (1 Bft) SO 135 0 min 2 UV-I 137 W/m 6,4 km/h (2 Bft)
23.08.2010 11:50 19,9 C 89 % 1001,9 hPa 0,0 mm 0,0 km/h (0 Bft) S 180 0 min 1 UV-I 109 W/m 4,8 km/h (1 Bft)
23.08.2010 12:00 20,0 C 90 % 1001,5 hPa 0,0 mm 0,0 km/h (0 Bft) S 180 0 min 2 UV-I 153 W/m 4,8 km/h (1 Bft)
23.08.2010 12:10 19,9 C 89 % 1001,4 hPa 0,0 mm 1,6 km/h (1 Bft) S-SW 202 0 min 2 UV-I 158 W/m 9,7 km/h (2 Bft)
23.08.2010 12:20 20,2 C 88 % 1001,3 hPa 0,0 mm 1,6 km/h (1 Bft) S-SW 202 0 min 2 UV-I 153 W/m 8,0 km/h (2 Bft)
23.08.2010 12:30 20,4 C 87 % 1001,3 hPa 0,0 mm 1,6 km/h (1 Bft) S-SW 202 0 min 2 UV-I 179 W/m 8,0 km/h (2 Bft)
23.08.2010 12:40 20,6 C 87 % 1001,1 hPa 0,0 mm 1,6 km/h (1 Bft) S-SW 202 0 min 2 UV-I 204 W/m 9,7 km/h (2 Bft)
23.08.2010 12:50 20,8 C 86 % 1001,0 hPa 0,0 mm 3,2 km/h (1 Bft) S-SW 202 0 min 2 UV-I 190 W/m 11,3 km/h (2 Bft)
23.08.2010 13:00 20,9 C 86 % 1000,8 hPa 0,0 mm 3,2 km/h (1 Bft) SO 135 0 min 2 UV-I 209 W/m 16,1 km/h (3 Bft)
23.08.2010 13:10 21,1 C 85 % 1000,7 hPa 0,0 mm 3,2 km/h (1 Bft) S 180 0 min 2 UV-I 199 W/m 17,7 km/h (3 Bft)
23.08.2010 13:20 21,1 C 85 % 1000,6 hPa 0,0 mm 3,2 km/h (1 Bft) S-SW 202 0 min 2 UV-I 207 W/m 11,3 km/h (2 Bft)
23.08.2010 13:30 21,2 C 85 % 1000,5 hPa 0,0 mm 3,2 km/h (1 Bft) S-SO 157 0 min 1 UV-I 113 W/m 16,1 km/h (3 Bft)
23.08.2010 13:40 21,1 C 85 % 1000,6 hPa 0,0 mm 1,6 km/h (1 Bft) S 180 0 min 1 UV-I 77 W/m 9,7 km/h (2 Bft)
23.08.2010 13:50 21,0 C 87 % 1000,5 hPa 0,0 mm 1,6 km/h (1 Bft) S-SW 202 0 min 2 UV-I 153 W/m 9,7 km/h (2 Bft)
23.08.2010 14:00 20,9 C 89 % 1000,4 hPa 0,0 mm 0,0 km/h (0 Bft) S-SO 157 0 min 2 UV-I 160 W/m 6,4 km/h (2 Bft)
23.08.2010 14:10 20,9 C 90 % 1000,2 hPa 0,0 mm 0,0 km/h (0 Bft) S-SO 157 0 min 2 UV-I 146 W/m 8,0 km/h (2 Bft)
23.08.2010 14:20 21,2 C 89 % 1000,1 hPa 0,0 mm 1,6 km/h (1 Bft) S-SO 157 0 min 3 UV-I 250 W/m 11,3 km/h (2 Bft)
23.08.2010 14:30 21,7 C 85 % 999,8 hPa 0,0 mm 4,8 km/h (1 Bft) S 180 0 min 3 UV-I 269 W/m 16,1 km/h (3 Bft)
23.08.2010 14:40 22,1 C 81 % 999,7 hPa 0,0 mm 4,8 km/h (1 Bft) N-NW 337 0 min 3 UV-I 239 W/m 20,9 km/h (4 Bft)
23.08.2010 14:50 22,3 C 79 % 999,6 hPa 0,0 mm 6,4 km/h (2 Bft) S-SW 202 0 min 2 UV-I 213 W/m 20,9 km/h (4 Bft)
23.08.2010 15:00 22,4 C 77 % 999,3 hPa 0,0 mm 6,4 km/h (2 Bft) S-SO 157 0 min 2 UV-I 216 W/m 27,4 km/h (4 Bft)
23.08.2010 15:10 22,7 C 76 % 999,3 hPa 0,0 mm 6,4 km/h (2 Bft) S-SW 202 0 min 3 UV-I 288 W/m 22,5 km/h (4 Bft)
23.08.2010 15:20 22,9 C 75 % 999,1 hPa 0,0 mm 4,8 km/h (1 Bft) S-SW 202 0 min 3 UV-I 304 W/m 19,3 km/h (3 Bft)
23.08.2010 15:30 23,2 C 73 % 998,9 hPa 0,0 mm 4,8 km/h (1 Bft) S-SW 202 10 min 3 UV-I 396 W/m 17,7 km/h (3 Bft)
23.08.2010 15:40 23,5 C 73 % 998,7 hPa 0,0 mm 6,4 km/h (2 Bft) S-SW 202 0 min 3 UV-I 279 W/m 20,9 km/h (4 Bft)
23.08.2010 15:50 23,4 C 71 % 998,6 hPa 0,3 mm 9,7 km/h (2 Bft) S-SW 202 0 min 2 UV-I 169 W/m 30,6 km/h (5 Bft)
23.08.2010 16:00 23,8 C 69 % 998,6 hPa 0,3 mm 11,4 km/h (2 Bft) SW 232 0 min 2 UV-I 142 W/m 20,9 km/h (4 Bft)
23.08.2010 16:10 23,8 C 70 % 998,6 hPa 0,3 mm 8,0 km/h (2 Bft) S-SW 202 0 min 2 UV-I 207 W/m 24,1 km/h (4 Bft)
23.08.2010 16:20 23,7 C 69 % 998,6 hPa 0,0 mm 9,7 km/h (2 Bft) SW 225 0 min 2 UV-I 195 W/m 20,9 km/h (4 Bft)
23.08.2010 16:30 23,9 C 68 % 998,5 hPa 0,0 mm 8,0 km/h (2 Bft) SW 225 0 min 3 UV-I 264 W/m 27,4 km/h (4 Bft)
23.08.2010 16:40 24,4 C 65 % 998,6 hPa 0,0 mm 11,3 km/h (2 Bft) W-SW 247 10 min 3 UV-I 708 W/m 35,4 km/h (5 Bft)
23.08.2010 16:50 25,2 C 64 % 998,6 hPa 0,0 mm 12,9 km/h (3 Bft) SW 225 10 min 2 UV-I 654 W/m 33,8 km/h (5 Bft)
23.08.2010 17:00 24,6 C 66 % 998,6 hPa 0,0 mm 12,9 km/h (3 Bft) W-SW 247 0 min 2 UV-I 206 W/m 33,8 km/h (5 Bft)
23.08.2010 17:10 23,9 C 66 % 998,8 hPa 0,0 mm 11,3 km/h (2 Bft) SW 225 10 min 2 UV-I 299 W/m 40,2 km/h (6 Bft)
23.08.2010 17:20 24,2 C 64 % 998,7 hPa 0,0 mm 12,9 km/h (3 Bft) SW 225 10 min 2 UV-I 673 W/m 32,2 km/h (5 Bft)
23.08.2010 17:30 23,7 C 67 % 999,0 hPa 0,0 mm 9,7 km/h (2 Bft) SW 225 0 min 1 UV-I 134 W/m 24,1 km/h (4 Bft)
23.08.2010 17:40 23,4 C 66 % 999,0 hPa 0,0 mm 9,7 km/h (2 Bft) W-SW 247 0 min 1 UV-I 118 W/m 25,7 km/h (4 Bft)
23.08.2010 17:50 23,2 C 67 % 999,0 hPa 0,0 mm 6,4 km/h (2 Bft) W-SW 247 0 min 1 UV-I 98 W/m 19,3 km/h (3 Bft)
23.08.2010 18:00 23,1 C 66 % 999,0 hPa 0,0 mm 8,0 km/h (2 Bft) W 270 0 min 1 UV-I 185 W/m 22,5 km/h (4 Bft)
23.08.2010 18:10 23,2 C 65 % 998,8 hPa 0,0 mm 8,0 km/h (2 Bft) W-SW 247 10 min 1 UV-I 206 W/m 22,5 km/h (4 Bft)
23.08.2010 18:20 23,2 C 66 % 998,9 hPa 0,0 mm 6,4 km/h (2 Bft) W-SW 247 0 min 1 UV-I 165 W/m 20,9 km/h (4 Bft)
23.08.2010 18:30 23,0 C 66 % 998,8 hPa 0,0 mm 6,4 km/h (2 Bft) W-SW 247 0 min 1 UV-I 107 W/m 24,1 km/h (4 Bft)
23.08.2010 18:40 22,8 C 68 % 998,7 hPa 0,0 mm 4,8 km/h (1 Bft) W 270 0 min 1 UV-I 90 W/m 17,7 km/h (3 Bft)
23.08.2010 18:50 22,6 C 67 % 998,7 hPa 0,0 mm 9,7 km/h (2 Bft) W-SW 247 0 min 1 UV-I 130 W/m 32,2 km/h (5 Bft)
23.08.2010 19:00 22,6 C 65 % 999,0 hPa 0,0 mm 11,3 km/h (2 Bft) W 270 10 min 1 UV-I 132 W/m 27,4 km/h (4 Bft)
23.08.2010 19:10 22,4 C 64 % 999,1 hPa 0,0 mm 9,7 km/h (2 Bft) W-SW 247 10 min 0 UV-I 234 W/m 29,0 km/h (5 Bft)
23.08.2010 19:20 22,5 C 64 % 999,1 hPa 0,0 mm 8,0 km/h (2 Bft) W 270 10 min 0 UV-I 218 W/m 20,9 km/h (4 Bft)
23.08.2010 19:30 22,4 C 64 % 999,3 hPa 0,0 mm 8,0 km/h (2 Bft) W 270 0 min 0 UV-I 79 W/m 24,1 km/h (4 Bft)
23.08.2010 19:40 22,2 C 64 % 999,4 hPa 0,0 mm 9,7 km/h (2 Bft) W-SW 247 0 min 0 UV-I 62 W/m 24,1 km/h (4 Bft)
23.08.2010 19:50 22,0 C 64 % 999,5 hPa 0,0 mm 9,7 km/h (2 Bft) W-SW 247 0 min 0 UV-I 39 W/m 30,6 km/h (5 Bft)
23.08.2010 20:00 21,8 C 66 % 999,5 hPa 0,0 mm 6,4 km/h (2 Bft) W-SW 247 0 min 0 UV-I 30 W/m 19,3 km/h (3 Bft)
23.08.2010 20:10 21,5 C 66 % 999,7 hPa 0,0 mm 3,2 km/h (1 Bft) W-SW 247 10 min 0 UV-I 32 W/m 16,1 km/h (3 Bft)
23.08.2010 20:20 21,3 C 67 % 999,7 hPa 0,0 mm 6,4 km/h (2 Bft) W 270 10 min 0 UV-I 23 W/m 17,7 km/h (3 Bft)
23.08.2010 20:30 21,2 C 68 % 999,8 hPa 0,0 mm 3,2 km/h (1 Bft) W-SW 247 0 min 0 UV-I 16 W/m 14,5 km/h (3 Bft)
23.08.2010 20:40 20,9 C 70 % 999,8 hPa 0,0 mm 1,6 km/h (1 Bft) W-SW 247 0 min 0 UV-I 5 W/m 11,3 km/h (2 Bft)
23.08.2010 20:50 20,6 C 71 % 1000,1 hPa 0,0 mm 3,2 km/h (1 Bft) W-SW 247 0 min 0 UV-I 0 W/m 20,9 km/h (4 Bft)
23.08.2010 21:00 20,6 C 72 % 1000,3 hPa 0,0 mm 3,2 km/h (1 Bft) W-SW 247 0 min 0 UV-I 0 W/m 11,3 km/h (2 Bft)
23.08.2010 21:10 20,4 C 76 % 1000,4 hPa 0,0 mm 1,6 km/h (1 Bft) SW 225 0 min 0 UV-I 0 W/m 9,7 km/h (2 Bft)
23.08.2010 21:20 20,1 C 77 % 1000,7 hPa 0,0 mm 1,6 km/h (1 Bft) SW 225 0 min 0 UV-I 0 W/m 8,0 km/h (2 Bft)
23.08.2010 21:30 19,8 C 77 % 1000,8 hPa 0,0 mm 1,6 km/h (1 Bft) SW 225 0 min 0 UV-I 0 W/m 9,7 km/h (2 Bft)
23.08.2010 21:40 19,6 C 78 % 1000,8 hPa 0,0 mm 1,6 km/h (1 Bft) W-SW 247 0 min 0 UV-I 0 W/m 8,0 km/h (2 Bft)
23.08.2010 21:50 19,3 C 80 % 1000,8 hPa 0,0 mm 0,0 km/h (0 Bft) S-SW 202 0 min 0 UV-I 0 W/m 4,8 km/h (1 Bft)
23.08.2010 22:00 19,2 C 80 % 1000,8 hPa 0,0 mm 1,6 km/h (1 Bft) SW 225 0 min 0 UV-I 0 W/m 9,7 km/h (2 Bft)
23.08.2010 22:10 19,2 C 80 % 1000,9 hPa 0,0 mm 0,0 km/h (0 Bft) SW 225 0 min 0 UV-I 0 W/m 6,4 km/h (2 Bft)
23.08.2010 22:20 19,1 C 80 % 1001,0 hPa 0,0 mm 0,0 km/h (0 Bft) S-SW 202 0 min 0 UV-I 0 W/m 4,8 km/h (1 Bft)
23.08.2010 22:30 18,9 C 79 % 1001,2 hPa 0,0 mm 0,0 km/h (0 Bft) SW 225 0 min 0 UV-I 0 W/m 6,4 km/h (2 Bft)
23.08.2010 22:40 18,8 C 80 % 1001,4 hPa 0,0 mm 0,0 km/h (0 Bft) W-SW 247 0 min 0 UV-I 0 W/m 4,8 km/h (1 Bft)
23.08.2010 22:50 18,8 C 80 % 1001,4 hPa 0,0 mm 1,6 km/h (1 Bft) SW 225 0 min 0 UV-I 0 W/m 8,0 km/h (2 Bft)
23.08.2010 23:00 18,7 C 80 % 1001,6 hPa 0,0 mm 1,6 km/h (1 Bft) SW 225 0 min 0 UV-I 0 W/m 6,4 km/h (2 Bft)
23.08.2010 23:10 18,7 C 79 % 1001,6 hPa 0,0 mm 1,6 km/h (1 Bft) S-SW 202 0 min 0 UV-I 0 W/m 8,0 km/h (2 Bft)
23.08.2010 23:20 18,7 C 79 % 1001,3 hPa 0,0 mm 1,6 km/h (1 Bft) SW 225 0 min 0 UV-I 0 W/m 9,7 km/h (2 Bft)
23.08.2010 23:30 18,5 C 79 % 1001,2 hPa 0,0 mm 1,6 km/h (1 Bft) SW 225 0 min 0 UV-I 0 W/m 6,4 km/h (2 Bft)
23.08.2010 23:40 18,4 C 79 % 1001,2 hPa 0,0 mm 1,6 km/h (1 Bft) SW 225 0 min 0 UV-I 0 W/m 6,4 km/h (2 Bft)
23.08.2010 23:50 18,4 C 79 % 1001,1 hPa 0,0 mm 1,6 km/h (1 Bft) S-SW 202 0 min 0 UV-I 0 W/m 6,4 km/h (2 Bft)
_ Min-Zeit 01:30 16:50 16:30 - 00:00 - - - - - 00:00
Minimum _ 16,2 C 64 % 998,5 hPa - 0,0 km/h (0 Bft) - - - - - 0,0 km/h (0 Bft)
_ Max-Zeit 16:50 05:30 00:00 05:00 16:50 - - 15:30 15:30 16:40 17:10
Maximum _ 25,3 C 95 % 1010,5 hPa 0,3 mm 12,9 km/h
SW (3 Bft)
- - 10 min 3 UV-I 708 W/m 40,2 km/h
W (6 Bft)
Durchschnitt _ 19,5 C 84 % 1003,0 hPa #1,0 mm 2,8 km/h (1 Bft) S-SW - #1:50 h 2 UV-I 154 W/m 10,2 km/h (2 Bft)